sensor_id;sensor_type;location;lat;lon;timestamp;pressure;altitude;pressure_sealevel;temperature;humidity
33288;BME280;19657;50.452;30.372;2024-02-23T00:01:57;141353.58;;;-3.80;100.00
33288;BME280;19657;50.452;30.372;2024-02-23T00:04:43;141344.91;;;-3.84;100.00
33288;BME280;19657;50.452;30.372;2024-02-23T00:07:28;141330.78;;;-3.89;100.00
33288;BME280;19657;50.452;30.372;2024-02-23T00:10:14;141318.66;;;-3.95;100.00
33288;BME280;19657;50.452;30.372;2024-02-23T00:13:00;141313.70;;;-3.97;100.00
33288;BME280;19657;50.452;30.372;2024-02-23T00:15:46;141308.50;;;-3.99;100.00
33288;BME280;19657;50.452;30.372;2024-02-23T00:18:32;141300.83;;;-4.02;100.00
33288;BME280;19657;50.452;30.372;2024-02-23T00:21:18;141291.66;;;-4.06;100.00
33288;BME280;19657;50.452;30.372;2024-02-23T00:24:03;141299.09;;;-4.02;100.00
33288;BME280;19657;50.452;30.372;2024-02-23T00:26:49;141304.55;;;-4.00;100.00
33288;BME280;19657;50.452;30.372;2024-02-23T00:29:36;141290.91;;;-4.06;100.00
33288;BME280;19657;50.452;30.372;2024-02-23T00:32:22;141282.98;;;-4.09;100.00
33288;BME280;19657;50.452;30.372;2024-02-23T00:35:08;141275.06;;;-4.12;100.00
33288;BME280;19657;50.452;30.372;2024-02-23T00:37:54;141274.33;;;-4.13;100.00
33288;BME280;19657;50.452;30.372;2024-02-23T00:40:39;141262.94;;;-4.18;100.00
33288;BME280;19657;50.452;30.372;2024-02-23T00:43:25;141264.42;;;-4.17;100.00
33288;BME280;19657;50.452;30.372;2024-02-23T00:46:10;141256.75;;;-4.20;100.00
33288;BME280;19657;50.452;30.372;2024-02-23T00:48:57;141250.05;;;-4.23;100.00
33288;BME280;19657;50.452;30.372;2024-02-23T00:51:43;141243.09;;;-4.26;100.00
33288;BME280;19657;50.452;30.372;2024-02-23T00:54:29;141248.33;;;-4.24;100.00
33288;BME280;19657;50.452;30.372;2024-02-23T00:57:14;141256.25;;;-4.21;100.00
33288;BME280;19657;50.452;30.372;2024-02-23T01:00:02;141246.59;;;-4.24;100.00
33288;BME280;19657;50.452;30.372;2024-02-23T01:02:50;141234.95;;;-4.29;100.00
33288;BME280;19657;50.452;30.372;2024-02-23T01:05:35;141235.67;;;-4.29;100.00
33288;BME280;19657;50.452;30.372;2024-02-23T01:08:23;141235.20;;;-4.29;100.00
33288;BME280;19657;50.452;30.372;2024-02-23T01:11:09;141230.02;;;-4.31;100.00
33288;BME280;19657;50.452;30.372;2024-02-23T01:13:55;141226.53;;;-4.32;100.00
33288;BME280;19657;50.452;30.372;2024-02-23T01:16:40;141218.11;;;-4.36;100.00
33288;BME280;19657;50.452;30.372;2024-02-23T01:19:26;141212.17;;;-4.38;100.00
33288;BME280;19657;50.452;30.372;2024-02-23T01:22:11;141203.25;;;-4.42;100.00
33288;BME280;19657;50.452;30.372;2024-02-23T01:24:57;141204.50;;;-4.42;100.00
33288;BME280;19657;50.452;30.372;2024-02-23T01:27:43;141204.75;;;-4.42;100.00
33288;BME280;19657;50.452;30.372;2024-02-23T01:30:32;141203.50;;;-4.42;100.00
33288;BME280;19657;50.452;30.372;2024-02-23T01:33:18;141201.02;;;-4.43;100.00
33288;BME280;19657;50.452;30.372;2024-02-23T01:36:05;141201.52;;;-4.43;100.00
33288;BME280;19657;50.452;30.372;2024-02-23T01:38:51;141202.00;;;-4.43;100.00
33288;BME280;19657;50.452;30.372;2024-02-23T01:41:36;141205.97;;;-4.41;100.00
33288;BME280;19657;50.452;30.372;2024-02-23T01:44:22;141206.22;;;-4.41;100.00
33288;BME280;19657;50.452;30.372;2024-02-23T01:47:08;141193.34;;;-4.46;100.00
33288;BME280;19657;50.452;30.372;2024-02-23T01:49:55;141189.88;;;-4.48;100.00
33288;BME280;19657;50.452;30.372;2024-02-23T01:52:42;141189.39;;;-4.48;100.00
33288;BME280;19657;50.452;30.372;2024-02-23T01:55:29;141186.17;;;-4.49;100.00
33288;BME280;19657;50.452;30.372;2024-02-23T01:58:17;141183.95;;;-4.50;100.00
33288;BME280;19657;50.452;30.372;2024-02-23T02:01:03;141193.59;;;-4.46;100.00
33288;BME280;19657;50.452;30.372;2024-02-23T02:03:49;141195.81;;;-4.45;100.00
33288;BME280;19657;50.452;30.372;2024-02-23T02:06:35;141190.63;;;-4.47;100.00
33288;BME280;19657;50.452;30.372;2024-02-23T02:09:21;141177.02;;;-4.53;100.00
33288;BME280;19657;50.452;30.372;2024-02-23T02:12:07;141175.03;;;-4.53;100.00
33288;BME280;19657;50.452;30.372;2024-02-23T02:14:53;141175.03;;;-4.53;100.00
33288;BME280;19657;50.452;30.372;2024-02-23T02:17:41;141173.31;;;-4.54;100.00
33288;BME280;19657;50.452;30.372;2024-02-23T02:20:27;141168.59;;;-4.56;100.00
33288;BME280;19657;50.452;30.372;2024-02-23T02:23:16;141163.41;;;-4.59;100.00
33288;BME280;19657;50.452;30.372;2024-02-23T02:26:03;141164.88;;;-4.58;100.00
33288;BME280;19657;50.452;30.372;2024-02-23T02:28:49;141159.20;;;-4.61;100.00
33288;BME280;19657;50.452;30.372;2024-02-23T02:31:34;141151.27;;;-4.64;100.00
33288;BME280;19657;50.452;30.372;2024-02-23T02:34:22;141149.28;;;-4.65;100.00
33288;BME280;19657;50.452;30.372;2024-02-23T02:37:08;141137.41;;;-4.69;100.00
33288;BME280;19657;50.452;30.372;2024-02-23T02:39:53;141124.80;;;-4.75;100.00
33288;BME280;19657;50.452;30.372;2024-02-23T02:42:39;141111.41;;;-4.80;100.00
33288;BME280;19657;50.452;30.372;2024-02-23T02:45:24;141097.31;;;-4.86;100.00
33288;BME280;19657;50.452;30.372;2024-02-23T02:48:10;141090.39;;;-4.89;100.00
33288;BME280;19657;50.452;30.372;2024-02-23T02:50:55;141084.20;;;-4.91;100.00
33288;BME280;19657;50.452;30.372;2024-02-23T02:53:41;141081.47;;;-4.92;100.00
33288;BME280;19657;50.452;30.372;2024-02-23T02:56:27;141088.16;;;-4.90;100.00
33288;BME280;19657;50.452;30.372;2024-02-23T02:59:13;141096.58;;;-4.86;100.00
33288;BME280;19657;50.452;30.372;2024-02-23T03:01:58;141104.27;;;-4.83;100.00
33288;BME280;19657;50.452;30.372;2024-02-23T03:04:48;141104.00;;;-4.83;100.00
33288;BME280;19657;50.452;30.372;2024-02-23T03:07:34;141104.98;;;-4.83;100.00
33288;BME280;19657;50.452;30.372;2024-02-23T03:10:20;141097.81;;;-4.86;100.00
33288;BME280;19657;50.452;30.372;2024-02-23T03:13:06;141098.80;;;-4.85;100.00
33288;BME280;19657;50.452;30.372;2024-02-23T03:15:52;141106.22;;;-4.82;100.00
33288;BME280;19657;50.452;30.372;2024-02-23T03:18:37;141103.25;;;-4.84;100.00
33288;BME280;19657;50.452;30.372;2024-02-23T03:21:23;141107.45;;;-4.82;100.00
33288;BME280;19657;50.452;30.372;2024-02-23T03:24:09;141103.52;;;-4.83;100.00
33288;BME280;19657;50.452;30.372;2024-02-23T03:26:54;141106.95;;;-4.82;100.00
33288;BME280;19657;50.452;30.372;2024-02-23T03:29:41;141111.44;;;-4.80;100.00
33288;BME280;19657;50.452;30.372;2024-02-23T03:32:27;141106.97;;;-4.82;100.00
33288;BME280;19657;50.452;30.372;2024-02-23T03:35:13;141106.97;;;-4.82;100.00
33288;BME280;19657;50.452;30.372;2024-02-23T03:37:59;141105.23;;;-4.83;100.00
33288;BME280;19657;50.452;30.372;2024-02-23T03:40:44;141104.00;;;-4.84;100.00
33288;BME280;19657;50.452;30.372;2024-02-23T03:43:30;141098.80;;;-4.85;100.00
33288;BME280;19657;50.452;30.372;2024-02-23T03:46:19;141097.58;;;-4.86;100.00
33288;BME280;19657;50.452;30.372;2024-02-23T03:49:05;141106.72;;;-4.82;100.00
33288;BME280;19657;50.452;30.372;2024-02-23T03:51:51;141116.38;;;-4.78;100.00
33288;BME280;19657;50.452;30.372;2024-02-23T03:54:37;141113.41;;;-4.79;100.00
33288;BME280;19657;50.452;30.372;2024-02-23T03:57:22;141104.73;;;-4.83;100.00
33288;BME280;19657;50.452;30.372;2024-02-23T04:00:08;141105.47;;;-4.83;100.00
33288;BME280;19657;50.452;30.372;2024-02-23T04:03:00;141108.69;;;-4.81;100.00
33288;BME280;19657;50.452;30.372;2024-02-23T04:05:45;141104.00;;;-4.83;100.00
33288;BME280;19657;50.452;30.372;2024-02-23T04:08:31;141103.00;;;-4.84;100.00
33288;BME280;19657;50.452;30.372;2024-02-23T04:11:16;141117.36;;;-4.78;100.00
33288;BME280;19657;50.452;30.372;2024-02-23T04:14:02;141116.63;;;-4.78;100.00
33288;BME280;19657;50.452;30.372;2024-02-23T04:16:50;141119.34;;;-4.77;100.00
33288;BME280;19657;50.452;30.372;2024-02-23T04:19:36;141111.92;;;-4.80;100.00
33288;BME280;19657;50.452;30.372;2024-02-23T04:22:22;141106.97;;;-4.82;100.00
33288;BME280;19657;50.452;30.372;2024-02-23T04:25:08;141115.38;;;-4.78;100.00
33288;BME280;19657;50.452;30.372;2024-02-23T04:27:54;141109.69;;;-4.81;100.00
33288;BME280;19657;50.452;30.372;2024-02-23T04:30:39;141109.94;;;-4.81;100.00
33288;BME280;19657;50.452;30.372;2024-02-23T04:33:25;141116.13;;;-4.78;100.00
33288;BME280;19657;50.452;30.372;2024-02-23T04:36:11;141116.38;;;-4.78;100.00
33288;BME280;19657;50.452;30.372;2024-02-23T04:38:56;141111.91;;;-4.80;100.00
33288;BME280;19657;50.452;30.372;2024-02-23T04:41:42;141104.02;;;-4.83;100.00
33288;BME280;19657;50.452;30.372;2024-02-23T04:44:27;141102.03;;;-4.84;100.00
33288;BME280;19657;50.452;30.372;2024-02-23T04:47:13;141102.27;;;-4.84;100.00
33288;BME280;19657;50.452;30.372;2024-02-23T04:49:59;141104.75;;;-4.83;100.00
33288;BME280;19657;50.452;30.372;2024-02-23T04:52:45;141107.45;;;-4.82;100.00
33288;BME280;19657;50.452;30.372;2024-02-23T04:55:31;141110.19;;;-4.81;100.00
33288;BME280;19657;50.452;30.372;2024-02-23T04:58:16;141109.69;;;-4.81;100.00
33288;BME280;19657;50.452;30.372;2024-02-23T05:01:01;141112.66;;;-4.80;100.00
33288;BME280;19657;50.452;30.372;2024-02-23T05:03:49;141114.16;;;-4.79;100.00
33288;BME280;19657;50.452;30.372;2024-02-23T05:06:34;141112.91;;;-4.79;100.00
33288;BME280;19657;50.452;30.372;2024-02-23T05:09:21;141118.84;;;-4.77;100.00
33288;BME280;19657;50.452;30.372;2024-02-23T05:12:08;141124.53;;;-4.75;100.00
33288;BME280;19657;50.452;30.372;2024-02-23T05:14:54;141128.00;;;-4.73;100.00
33288;BME280;19657;50.452;30.372;2024-02-23T05:17:39;141125.78;;;-4.74;100.00
33288;BME280;19657;50.452;30.372;2024-02-23T05:20:25;141128.00;;;-4.73;100.00
33288;BME280;19657;50.452;30.372;2024-02-23T05:23:11;141130.23;;;-4.72;100.00
33288;BME280;19657;50.452;30.372;2024-02-23T05:25:56;141126.53;;;-4.74;100.00
33288;BME280;19657;50.452;30.372;2024-02-23T05:28:42;141121.83;;;-4.76;100.00
33288;BME280;19657;50.452;30.372;2024-02-23T05:31:44;141116.86;;;-4.78;100.00
33288;BME280;19657;50.452;30.372;2024-02-23T05:34:30;141115.88;;;-4.78;100.00
33288;BME280;19657;50.452;30.372;2024-02-23T05:37:16;141119.59;;;-4.77;100.00
33288;BME280;19657;50.452;30.372;2024-02-23T05:40:03;141126.50;;;-4.74;100.00
33288;BME280;19657;50.452;30.372;2024-02-23T05:42:52;141132.72;;;-4.71;100.00
33288;BME280;19657;50.452;30.372;2024-02-23T05:45:38;141143.59;;;-4.67;100.00
33288;BME280;19657;50.452;30.372;2024-02-23T05:48:24;141144.83;;;-4.66;100.00
33288;BME280;19657;50.452;30.372;2024-02-23T05:51:10;141156.22;;;-4.62;100.00
33288;BME280;19657;50.452;30.372;2024-02-23T05:53:56;141164.14;;;-4.58;100.00
33288;BME280;19657;50.452;30.372;2024-02-23T05:56:41;141165.61;;;-4.58;100.00
33288;BME280;19657;50.452;30.372;2024-02-23T05:59:27;141161.67;;;-4.60;100.00
33288;BME280;19657;50.452;30.372;2024-02-23T06:02:13;141163.41;;;-4.59;100.00
33288;BME280;19657;50.452;30.372;2024-02-23T06:04:59;141170.83;;;-4.55;100.00
33288;BME280;19657;50.452;30.372;2024-02-23T06:07:45;141172.55;;;-4.54;100.00
33288;BME280;19657;50.452;30.372;2024-02-23T06:10:31;141178.48;;;-4.52;100.00
33288;BME280;19657;50.452;30.372;2024-02-23T06:13:16;141188.41;;;-4.48;100.00
33288;BME280;19657;50.452;30.372;2024-02-23T06:16:04;141200.55;;;-4.43;100.00
33288;BME280;19657;50.452;30.372;2024-02-23T06:18:50;141212.66;;;-4.38;100.00
33288;BME280;19657;50.452;30.372;2024-02-23T06:21:36;141199.78;;;-4.44;100.00
33288;BME280;19657;50.452;30.372;2024-02-23T06:24:22;141192.59;;;-4.46;100.00
33288;BME280;19657;50.452;30.372;2024-02-23T06:27:08;141188.14;;;-4.48;100.00
33288;BME280;19657;50.452;30.372;2024-02-23T06:29:54;141178.50;;;-4.52;100.00
33288;BME280;19657;50.452;30.372;2024-02-23T06:32:41;141180.97;;;-4.51;100.00
33288;BME280;19657;50.452;30.372;2024-02-23T06:35:28;141192.34;;;-4.46;100.00
33288;BME280;19657;50.452;30.372;2024-02-23T06:38:14;141202.27;;;-4.42;100.00
33288;BME280;19657;50.452;30.372;2024-02-23T06:40:59;141203.75;;;-4.42;100.00
33288;BME280;19657;50.452;30.372;2024-02-23T06:43:45;141204.75;;;-4.42;100.00
33288;BME280;19657;50.452;30.372;2024-02-23T06:46:31;141214.39;;;-4.38;100.00
33288;BME280;19657;50.452;30.372;2024-02-23T06:49:17;141223.83;;;-4.34;100.00
33288;BME280;19657;50.452;30.372;2024-02-23T06:52:03;141244.11;;;-4.25;100.00
33288;BME280;19657;50.452;30.372;2024-02-23T06:54:48;141258.22;;;-4.20;100.00
33288;BME280;19657;50.452;30.372;2024-02-23T06:57:34;141242.38;;;-4.26;100.00
33288;BME280;19657;50.452;30.372;2024-02-23T07:00:20;141222.09;;;-4.34;100.00
33288;BME280;19657;50.452;30.372;2024-02-23T07:03:09;141228.27;;;-4.32;100.00
33288;BME280;19657;50.452;30.372;2024-02-23T07:05:55;141246.58;;;-4.24;100.00
33288;BME280;19657;50.452;30.372;2024-02-23T07:08:42;141265.41;;;-4.17;100.00
33288;BME280;19657;50.452;30.372;2024-02-23T07:11:27;141252.05;;;-4.22;100.00
33288;BME280;19657;50.452;30.372;2024-02-23T07:14:13;141255.00;;;-4.21;100.00
33288;BME280;19657;50.452;30.372;2024-02-23T07:17:02;141267.39;;;-4.16;100.00
33288;BME280;19657;50.452;30.372;2024-02-23T07:19:48;141283.73;;;-4.09;100.00
33288;BME280;19657;50.452;30.372;2024-02-23T07:22:36;141288.19;;;-4.07;100.00
33288;BME280;19657;50.452;30.372;2024-02-23T07:25:22;141287.45;;;-4.07;100.00
33288;BME280;19657;50.452;30.372;2024-02-23T07:28:08;141287.20;;;-4.07;100.00
33288;BME280;19657;50.452;30.372;2024-02-23T07:30:54;141303.78;;;-4.01;100.00
33288;BME280;19657;50.452;30.372;2024-02-23T07:33:40;141312.47;;;-3.97;100.00
33288;BME280;19657;50.452;30.372;2024-02-23T07:36:27;141301.06;;;-4.02;100.00
33288;BME280;19657;50.452;30.372;2024-02-23T07:39:12;141296.84;;;-4.03;100.00
33288;BME280;19657;50.452;30.372;2024-02-23T07:41:58;141296.09;;;-4.04;100.00
33288;BME280;19657;50.452;30.372;2024-02-23T07:44:44;141310.72;;;-3.98;100.00
33288;BME280;19657;50.452;30.372;2024-02-23T07:47:31;141321.84;;;-3.93;100.00
33288;BME280;19657;50.452;30.372;2024-02-23T07:50:18;141301.81;;;-4.01;100.00
33288;BME280;19657;50.452;30.372;2024-02-23T07:53:05;141287.94;;;-4.07;100.00
33288;BME280;19657;50.452;30.372;2024-02-23T07:55:50;141300.33;;;-4.02;100.00
33288;BME280;19657;50.452;30.372;2024-02-23T07:58:36;141311.72;;;-3.97;100.00
33288;BME280;19657;50.452;30.372;2024-02-23T08:01:22;141303.55;;;-4.01;100.00
33288;BME280;19657;50.452;30.372;2024-02-23T08:04:08;141301.56;;;-4.02;100.00
33288;BME280;19657;50.452;30.372;2024-02-23T08:06:54;141296.59;;;-4.03;100.00
33288;BME280;19657;50.452;30.372;2024-02-23T08:09:40;141301.06;;;-4.02;100.00
33288;BME280;19657;50.452;30.372;2024-02-23T08:12:26;141301.81;;;-4.01;100.00
33288;BME280;19657;50.452;30.372;2024-02-23T08:15:12;141314.42;;;-3.96;100.00
33288;BME280;19657;50.452;30.372;2024-02-23T08:17:58;141321.63;;;-3.93;100.00
33288;BME280;19657;50.452;30.372;2024-02-23T08:20:44;141312.22;;;-3.97;100.00
33288;BME280;19657;50.452;30.372;2024-02-23T08:23:30;141312.69;;;-3.97;100.00
33288;BME280;19657;50.452;30.372;2024-02-23T08:26:16;141322.11;;;-3.93;100.00
33288;BME280;19657;50.452;30.372;2024-02-23T08:29:02;141323.09;;;-3.93;100.00
33288;BME280;19657;50.452;30.372;2024-02-23T08:31:48;141340.20;;;-3.85;100.00
33288;BME280;19657;50.452;30.372;2024-02-23T08:34:34;141352.09;;;-3.81;100.00
33288;BME280;19657;50.452;30.372;2024-02-23T08:37:21;141336.97;;;-3.87;100.00
33288;BME280;19657;50.452;30.372;2024-02-23T08:40:07;141345.39;;;-3.83;100.00
33288;BME280;19657;50.452;30.372;2024-02-23T08:42:53;141355.56;;;-3.79;100.00
33288;BME280;19657;50.452;30.372;2024-02-23T08:45:39;141360.52;;;-3.77;100.00
33288;BME280;19657;50.452;30.372;2024-02-23T08:48:25;141368.45;;;-3.74;100.00
33288;BME280;19657;50.452;30.372;2024-02-23T08:51:11;141367.44;;;-3.75;100.00
33288;BME280;19657;50.452;30.372;2024-02-23T08:53:57;141367.20;;;-3.75;100.00
33288;BME280;19657;50.452;30.372;2024-02-23T08:56:48;141353.09;;;-3.80;100.00
33288;BME280;19657;50.452;30.372;2024-02-23T08:59:34;141362.02;;;-3.77;100.00
33288;BME280;19657;50.452;30.372;2024-02-23T09:02:20;141345.16;;;-3.84;100.00
33288;BME280;19657;50.452;30.372;2024-02-23T09:05:06;141350.84;;;-3.81;100.00
33288;BME280;19657;50.452;30.372;2024-02-23T09:07:53;141359.53;;;-3.78;100.00
33288;BME280;19657;50.452;30.372;2024-02-23T09:10:39;141358.03;;;-3.78;100.00
33288;BME280;19657;50.452;30.372;2024-02-23T09:13:25;141366.95;;;-3.75;100.00
33288;BME280;19657;50.452;30.372;2024-02-23T09:16:13;141384.30;;;-3.67;100.00
33288;BME280;19657;50.452;30.372;2024-02-23T09:19:00;141388.02;;;-3.66;100.00
33288;BME280;19657;50.452;30.372;2024-02-23T09:21:46;141376.63;;;-3.71;100.00
33288;BME280;19657;50.452;30.372;2024-02-23T09:24:32;141372.66;;;-3.72;100.00
33288;BME280;19657;50.452;30.372;2024-02-23T09:27:20;141378.84;;;-3.69;100.00
33288;BME280;19657;50.452;30.372;2024-02-23T09:30:07;141367.70;;;-3.74;100.00
33288;BME280;19657;50.452;30.372;2024-02-23T09:32:53;141362.75;;;-3.76;100.00
33288;BME280;19657;50.452;30.372;2024-02-23T09:35:40;141382.80;;;-3.68;100.00
33288;BME280;19657;50.452;30.372;2024-02-23T09:38:26;141396.42;;;-3.62;100.00
33288;BME280;19657;50.452;30.372;2024-02-23T09:41:21;141383.55;;;-3.67;100.00
33288;BME280;19657;50.452;30.372;2024-02-23T09:44:08;141384.28;;;-3.67;100.00
33288;BME280;19657;50.452;30.372;2024-02-23T09:46:56;141397.66;;;-3.62;100.00
33288;BME280;19657;50.452;30.372;2024-02-23T09:49:41;141402.89;;;-3.59;100.00
33288;BME280;19657;50.452;30.372;2024-02-23T09:52:28;141395.94;;;-3.62;100.00
33288;BME280;19657;50.452;30.372;2024-02-23T09:55:14;141395.69;;;-3.62;100.00
33288;BME280;19657;50.452;30.372;2024-02-23T09:58:00;141394.45;;;-3.63;100.00
33288;BME280;19657;50.452;30.372;2024-02-23T10:00:47;141377.11;;;-3.70;100.00
33288;BME280;19657;50.452;30.372;2024-02-23T10:03:32;141369.19;;;-3.74;100.00
33288;BME280;19657;50.452;30.372;2024-02-23T10:06:18;141378.34;;;-3.70;100.00
33288;BME280;19657;50.452;30.372;2024-02-23T10:09:04;141387.75;;;-3.66;100.00
33288;BME280;19657;50.452;30.372;2024-02-23T10:11:53;141385.77;;;-3.66;100.00
33288;BME280;19657;50.452;30.372;2024-02-23T10:14:41;141390.47;;;-3.64;100.00
33288;BME280;19657;50.452;30.372;2024-02-23T10:17:28;141398.42;;;-3.61;100.00
33288;BME280;19657;50.452;30.372;2024-02-23T10:20:17;141390.00;;;-3.65;100.00
33288;BME280;19657;50.452;30.372;2024-02-23T10:23:03;141395.17;;;-3.63;100.00
33288;BME280;19657;50.452;30.372;2024-02-23T10:25:49;141413.28;;;-3.55;100.00
33288;BME280;19657;50.452;30.372;2024-02-23T10:28:37;141429.64;;;-3.48;100.00
33288;BME280;19657;50.452;30.372;2024-02-23T10:31:24;141436.34;;;-3.46;100.00
33288;BME280;19657;50.452;30.372;2024-02-23T10:34:11;141438.81;;;-3.45;100.00
33288;BME280;19657;50.452;30.372;2024-02-23T10:37:01;141434.59;;;-3.46;100.00
33288;BME280;19657;50.452;30.372;2024-02-23T10:39:50;141447.97;;;-3.41;100.00
33288;BME280;19657;50.452;30.372;2024-02-23T10:42:38;141447.25;;;-3.41;100.00
33288;BME280;19657;50.452;30.372;2024-02-23T10:45:24;141451.19;;;-3.40;100.00
33288;BME280;19657;50.452;30.372;2024-02-23T10:48:11;141451.92;;;-3.40;100.00
33288;BME280;19657;50.452;30.372;2024-02-23T10:50:57;141462.34;;;-3.35;100.00
33288;BME280;19657;50.452;30.372;2024-02-23T10:53:45;141478.97;;;-3.29;100.00
33288;BME280;19657;50.452;30.372;2024-02-23T10:56:32;141490.34;;;-3.23;100.00
33288;BME280;19657;50.452;30.372;2024-02-23T10:59:19;141502.23;;;-3.18;100.00
33288;BME280;19657;50.452;30.372;2024-02-23T11:02:06;141519.34;;;-3.11;100.00
33288;BME280;19657;50.452;30.372;2024-02-23T11:04:55;141537.20;;;-3.04;100.00
33288;BME280;19657;50.452;30.372;2024-02-23T11:07:42;141548.34;;;-2.99;100.00
33288;BME280;19657;50.452;30.372;2024-02-23T11:10:28;141555.06;;;-2.97;100.00
33288;BME280;19657;50.452;30.372;2024-02-23T11:13:15;141565.95;;;-2.92;100.00
33288;BME280;19657;50.452;30.372;2024-02-23T11:16:03;141553.08;;;-2.98;100.00
33288;BME280;19657;50.452;30.372;2024-02-23T11:18:49;141555.30;;;-2.97;100.00
33288;BME280;19657;50.452;30.372;2024-02-23T11:21:36;141569.17;;;-2.91;100.00
33288;BME280;19657;50.452;30.372;2024-02-23T11:24:28;141573.39;;;-2.89;100.00
33288;BME280;19657;50.452;30.372;2024-02-23T11:27:15;141586.05;;;-2.84;100.00
33288;BME280;19657;50.452;30.372;2024-02-23T11:30:08;141610.58;;;-2.74;100.00
33288;BME280;19657;50.452;30.372;2024-02-23T11:32:59;141625.47;;;-2.68;100.00
33288;BME280;19657;50.452;30.372;2024-02-23T11:35:46;141636.38;;;-2.63;100.00
33288;BME280;19657;50.452;30.372;2024-02-23T11:38:36;141653.97;;;-2.56;100.00
33288;BME280;19657;50.452;30.372;2024-02-23T11:41:23;141651.50;;;-2.57;100.00
33288;BME280;19657;50.452;30.372;2024-02-23T11:44:10;141647.55;;;-2.59;100.00
33288;BME280;19657;50.452;30.372;2024-02-23T11:46:59;141651.78;;;-2.57;100.00
33288;BME280;19657;50.452;30.372;2024-02-23T11:49:45;141648.03;;;-2.58;100.00
33288;BME280;19657;50.452;30.372;2024-02-23T11:52:32;141639.11;;;-2.62;100.00
33288;BME280;19657;50.452;30.372;2024-02-23T11:55:21;141640.59;;;-2.62;100.00
33288;BME280;19657;50.452;30.372;2024-02-23T11:58:12;141649.78;;;-2.58;100.00
33288;BME280;19657;50.452;30.372;2024-02-23T12:01:04;141654.00;;;-2.56;100.00
33288;BME280;19657;50.452;30.372;2024-02-23T12:03:50;141657.20;;;-2.55;100.00
33288;BME280;19657;50.452;30.372;2024-02-23T12:06:36;141660.45;;;-2.53;100.00
33288;BME280;19657;50.452;30.372;2024-02-23T12:09:24;141657.95;;;-2.54;100.00
33288;BME280;19657;50.452;30.372;2024-02-23T12:12:10;141663.42;;;-2.52;100.00
33288;BME280;19657;50.452;30.372;2024-02-23T12:14:56;141672.83;;;-2.48;100.00
33288;BME280;19657;50.452;30.372;2024-02-23T12:17:49;141679.78;;;-2.46;100.00
33288;BME280;19657;50.452;30.372;2024-02-23T12:20:35;141692.17;;;-2.40;100.00
33288;BME280;19657;50.452;30.372;2024-02-23T12:23:21;141688.97;;;-2.42;100.00
33288;BME280;19657;50.452;30.372;2024-02-23T12:26:08;141687.00;;;-2.43;100.00
33288;BME280;19657;50.452;30.372;2024-02-23T12:29:00;141682.52;;;-2.44;100.00
33288;BME280;19657;50.452;30.372;2024-02-23T12:31:47;141683.50;;;-2.44;100.00
33288;BME280;19657;50.452;30.372;2024-02-23T12:34:33;141690.70;;;-2.41;100.00
33288;BME280;19657;50.452;30.372;2024-02-23T12:37:21;141709.30;;;-2.33;100.00
33288;BME280;19657;50.452;30.372;2024-02-23T12:40:22;141716.00;;;-2.30;100.00
33288;BME280;19657;50.452;30.372;2024-02-23T12:43:09;141719.70;;;-2.29;100.00
33288;BME280;19657;50.452;30.372;2024-02-23T12:45:55;141721.22;;;-2.28;100.00
33288;BME280;19657;50.452;30.372;2024-02-23T12:48:42;141734.09;;;-2.23;100.00
33288;BME280;19657;50.452;30.372;2024-02-23T12:51:37;141734.09;;;-2.23;100.00
33288;BME280;19657;50.452;30.372;2024-02-23T12:54:23;141731.13;;;-2.24;100.00
33288;BME280;19657;50.452;30.372;2024-02-23T12:57:08;141738.58;;;-2.21;100.00
33288;BME280;19657;50.452;30.372;2024-02-23T12:59:54;141755.42;;;-2.14;100.00
33288;BME280;19657;50.452;30.372;2024-02-23T13:02:40;141750.25;;;-2.16;100.00
33288;BME280;19657;50.452;30.372;2024-02-23T13:05:26;141763.13;;;-2.11;100.00
33288;BME280;19657;50.452;30.372;2024-02-23T13:08:14;141781.00;;;-2.04;100.00
33288;BME280;19657;50.452;30.372;2024-02-23T13:11:00;141786.22;;;-2.02;100.00
33288;BME280;19657;50.452;30.372;2024-02-23T13:13:46;141801.59;;;-1.95;100.00
33288;BME280;19657;50.452;30.372;2024-02-23T13:16:33;141810.53;;;-1.91;100.00
33288;BME280;19657;50.452;30.372;2024-02-23T13:19:19;141814.00;;;-1.90;100.00
33288;BME280;19657;50.452;30.372;2024-02-23T13:22:05;141808.55;;;-1.92;100.00
33288;BME280;19657;50.452;30.372;2024-02-23T13:24:51;141814.48;;;-1.89;100.00
33288;BME280;19657;50.452;30.372;2024-02-23T13:27:37;141821.45;;;-1.87;100.00
33288;BME280;19657;50.452;30.372;2024-02-23T13:30:23;141820.72;;;-1.87;100.00
33288;BME280;19657;50.452;30.372;2024-02-23T13:33:10;141819.72;;;-1.87;100.00
33288;BME280;19657;50.452;30.372;2024-02-23T13:35:56;141822.70;;;-1.86;100.00
33288;BME280;19657;50.452;30.372;2024-02-23T13:38:43;141822.70;;;-1.86;100.00
33288;BME280;19657;50.452;30.372;2024-02-23T13:41:29;141816.47;;;-1.89;100.00
33288;BME280;19657;50.452;30.372;2024-02-23T13:44:15;141814.00;;;-1.90;100.00
33288;BME280;19657;50.452;30.372;2024-02-23T13:47:00;141807.30;;;-1.92;100.00
33288;BME280;19657;50.452;30.372;2024-02-23T13:49:46;141798.63;;;-1.96;100.00
33288;BME280;19657;50.452;30.372;2024-02-23T13:52:33;141795.64;;;-1.98;100.00
33288;BME280;19657;50.452;30.372;2024-02-23T13:55:19;141794.66;;;-1.98;100.00
33288;BME280;19657;50.452;30.372;2024-02-23T13:58:08;141795.16;;;-1.98;100.00
33288;BME280;19657;50.452;30.372;2024-02-23T14:00:54;141796.63;;;-1.97;100.00
33288;BME280;19657;50.452;30.372;2024-02-23T14:03:40;141792.91;;;-1.99;100.00
33288;BME280;19657;50.452;30.372;2024-02-23T14:06:26;141785.22;;;-2.02;100.00
33288;BME280;19657;50.452;30.372;2024-02-23T14:09:12;141783.48;;;-2.03;100.00